createdAt,value
2019-05-28T00:00:31.846Z,7.37
2019-05-28T00:03:00.252Z,5.97
2019-05-28T00:05:30.184Z,7.85
2019-05-28T00:07:58.616Z,6.85
2019-05-28T00:10:27.011Z,8.10
2019-05-28T00:12:55.514Z,6.37
2019-05-28T00:15:23.906Z,7.03
2019-05-28T00:17:52.294Z,9.20
2019-05-28T00:20:21.016Z,8.73
2019-05-28T00:22:49.393Z,6.92
2019-05-28T00:25:17.940Z,7.75
2019-05-28T00:27:46.317Z,7.65
2019-05-28T00:30:20.277Z,7.60
2019-05-28T00:32:45.483Z,8.30
2019-05-28T00:35:15.580Z,9.13
2019-05-28T00:37:44.298Z,8.88
2019-05-28T00:40:13.724Z,9.18
2019-05-28T00:42:43.723Z,10.28
2019-05-28T00:45:13.050Z,9.30
2019-05-28T00:47:41.459Z,9.63
2019-05-28T00:50:11.278Z,9.38
2019-05-28T00:52:39.897Z,9.60
2019-05-28T00:55:09.427Z,9.03
2019-05-28T00:57:40.882Z,8.93
2019-05-28T01:00:10.503Z,9.04
2019-05-28T01:02:38.911Z,9.73
2019-05-28T01:05:07.932Z,8.08
2019-05-28T01:07:36.412Z,10.50
2019-05-28T01:10:10.628Z,11.22
2019-05-28T01:12:39.046Z,10.25
2019-05-28T01:15:08.511Z,10.40
2019-05-28T01:17:37.859Z,10.55
2019-05-28T01:20:08.541Z,11.68
2019-05-28T01:22:37.039Z,12.70
2019-05-28T01:25:06.796Z,11.60
2019-05-28T01:27:36.729Z,11.45
2019-05-28T01:30:07.424Z,12.43
2019-05-28T01:32:37.354Z,11.85
2019-05-28T01:35:07.379Z,10.35
2019-05-28T01:37:35.782Z,11.53
2019-05-28T01:40:06.174Z,13.80
2019-05-28T01:42:34.581Z,11.20
2019-05-28T01:45:03.066Z,11.83
2019-05-28T01:47:31.501Z,12.20
2019-05-28T01:49:59.902Z,9.55
2019-05-28T01:52:28.368Z,9.88
2019-05-28T01:54:56.731Z,9.23
2019-05-28T01:57:25.296Z,9.13
2019-05-28T01:59:53.686Z,9.63
2019-05-28T02:02:22.096Z,9.35
2019-05-28T02:04:52.029Z,7.90
2019-05-28T02:07:20.475Z,10.23
2019-05-28T02:09:48.833Z,10.05
2019-05-28T02:12:18.791Z,7.83
2019-05-28T02:14:48.677Z,8.45
2019-05-28T02:17:18.807Z,8.05
2019-05-28T02:19:47.197Z,8.58
2019-05-28T02:22:15.600Z,8.83
2019-05-28T02:24:43.991Z,10.03
2019-05-28T02:27:12.392Z,10.93
2019-05-28T02:29:40.799Z,10.38
2019-05-28T02:32:09.460Z,10.25
2019-05-28T02:34:37.849Z,10.90
2019-05-28T02:37:07.795Z,15.40
2019-05-28T02:39:37.707Z,13.43
2019-05-28T02:42:07.650Z,13.88
2019-05-28T02:44:36.088Z,12.95
2019-05-28T02:47:04.496Z,11.20
2019-05-28T02:49:32.905Z,13.40
2019-05-28T02:52:02.267Z,14.45
2019-05-28T02:54:31.931Z,13.62
2019-05-28T02:57:02.681Z,13.60
2019-05-28T02:59:32.704Z,13.10
2019-05-28T03:02:03.122Z,15.68
2019-05-28T03:04:33.607Z,18.00
2019-05-28T03:07:03.691Z,18.30
2019-05-28T03:09:32.326Z,19.40
2019-05-28T03:12:01.012Z,18.65
2019-05-28T03:14:32.043Z,17.57
2019-05-28T03:17:03.510Z,19.05
2019-05-28T03:19:33.552Z,19.37
2019-05-28T03:22:03.482Z,17.50
2019-05-28T03:24:33.522Z,16.97
2019-05-28T03:27:02.276Z,18.42
2019-05-28T03:29:30.769Z,18.42
2019-05-28T03:32:08.845Z,17.30
2019-05-28T03:34:29.274Z,18.37
2019-05-28T03:36:58.640Z,18.95
2019-05-28T03:39:28.567Z,17.80
2019-05-28T03:41:58.447Z,16.12
2019-05-28T03:44:26.874Z,15.13
2019-05-28T03:46:55.263Z,16.23
2019-05-28T03:49:23.656Z,16.42
2019-05-28T03:51:52.057Z,16.37
2019-05-28T03:54:20.630Z,15.63
2019-05-28T03:56:49.095Z,16.25
2019-05-28T03:59:17.510Z,17.00
2019-05-28T04:01:45.930Z,16.30
2019-05-28T04:04:14.591Z,16.17
2019-05-28T04:06:42.980Z,16.87
2019-05-28T04:09:11.389Z,16.57
2019-05-28T04:11:44.829Z,17.20
2019-05-28T04:14:09.890Z,16.52
2019-05-28T04:16:38.279Z,16.43
2019-05-28T04:19:06.816Z,15.85
2019-05-28T04:21:35.276Z,16.32
2019-05-28T04:24:05.102Z,17.70
2019-05-28T04:26:33.593Z,17.80
2019-05-28T04:29:02.075Z,18.30
2019-05-28T04:31:30.536Z,16.93
2019-05-28T04:33:58.924Z,17.10
2019-05-28T04:36:27.358Z,17.27
2019-05-28T04:38:55.792Z,16.85
2019-05-28T04:41:24.202Z,17.55
2019-05-28T04:43:52.607Z,16.60
2019-05-28T04:46:21.043Z,15.85
2019-05-28T04:48:49.450Z,15.57
2019-05-28T04:51:17.960Z,14.83
2019-05-28T04:53:46.480Z,13.72
2019-05-28T04:56:14.868Z,13.50
2019-05-28T04:58:43.259Z,12.03
2019-05-28T05:01:11.672Z,9.93
2019-05-28T05:03:40.083Z,9.63
2019-05-28T05:06:08.484Z,9.58
2019-05-28T05:08:36.876Z,8.93
2019-05-28T05:11:05.358Z,8.90
2019-05-28T05:13:33.866Z,8.80
2019-05-28T05:16:02.287Z,9.15
2019-05-28T05:18:30.657Z,8.50
2019-05-28T05:20:59.159Z,8.18
2019-05-28T05:23:27.565Z,8.70
2019-05-28T05:25:57.479Z,8.00
2019-05-28T05:28:25.903Z,7.45
2019-05-28T05:30:54.322Z,7.37
2019-05-28T05:33:22.925Z,7.75
2019-05-28T05:35:52.834Z,7.90
2019-05-28T05:38:21.234Z,8.40
2019-05-28T05:40:49.654Z,8.05
2019-05-28T05:43:18.165Z,7.37
2019-05-28T05:45:46.653Z,7.67
2019-05-28T05:48:16.670Z,8.65
2019-05-28T05:50:45.496Z,7.75
2019-05-28T05:53:14.008Z,8.60
2019-05-28T05:55:44.707Z,8.57
2019-05-28T05:58:13.153Z,8.25
2019-05-28T06:00:41.537Z,8.40
2019-05-28T06:03:09.947Z,8.85
2019-05-28T06:05:38.355Z,9.03
2019-05-28T06:08:06.803Z,8.80
2019-05-28T06:10:35.174Z,9.63
2019-05-28T06:13:04.670Z,9.83
2019-05-28T06:15:33.316Z,10.18
2019-05-28T06:18:01.740Z,9.90
2019-05-28T06:20:31.641Z,9.70
2019-05-28T06:23:00.042Z,9.53
2019-05-28T06:25:28.549Z,9.83
2019-05-28T06:27:56.997Z,10.35
2019-05-28T06:30:25.391Z,10.70
2019-05-28T06:32:53.973Z,9.68
2019-05-28T06:35:22.410Z,10.35
2019-05-28T06:37:51.116Z,9.13
2019-05-28T06:40:20.049Z,9.43
2019-05-28T06:42:48.724Z,10.03
2019-05-28T06:45:18.139Z,10.30
2019-05-28T06:47:46.555Z,10.13
2019-05-28T06:50:15.212Z,10.10
2019-05-28T06:52:45.102Z,10.35
2019-05-28T06:55:14.566Z,10.00
2019-05-28T06:57:44.499Z,9.80
2019-05-28T07:00:13.369Z,10.93
2019-05-28T07:02:41.812Z,9.58
2019-05-28T07:05:10.291Z,9.80
2019-05-28T07:07:38.776Z,10.38
2019-05-28T07:10:08.165Z,10.50
2019-05-28T07:12:36.579Z,10.13
2019-05-28T07:15:07.845Z,9.75
2019-05-28T07:17:37.957Z,11.28
2019-05-28T07:20:07.605Z,9.90
2019-05-28T07:22:36.436Z,9.45
2019-05-28T07:25:07.156Z,9.80
2019-05-28T07:27:37.245Z,11.07
2019-05-28T07:30:09.393Z,10.35
2019-05-28T07:32:38.007Z,10.63
2019-05-28T07:35:06.948Z,10.28
2019-05-28T07:37:35.359Z,9.33
2019-05-28T07:40:07.091Z,10.50
2019-05-28T07:42:37.039Z,8.95
2019-05-28T07:45:06.445Z,9.68
2019-05-28T07:47:35.297Z,9.45
2019-05-28T07:50:07.128Z,9.50
2019-05-28T07:52:35.622Z,9.30
2019-05-28T07:55:04.799Z,9.65
2019-05-28T07:57:33.218Z,8.65
2019-05-28T08:00:05.422Z,9.83
2019-05-28T08:02:31.835Z,9.03
2019-05-28T08:05:00.332Z,9.05
2019-05-28T08:07:30.278Z,9.73
2019-05-28T08:09:58.707Z,8.93
2019-05-28T08:12:27.110Z,8.75
2019-05-28T08:14:55.527Z,9.20
2019-05-28T08:17:23.956Z,8.58
2019-05-28T08:19:52.675Z,9.18
2019-05-28T08:22:21.275Z,8.98
2019-05-28T08:24:49.873Z,8.63
2019-05-28T08:27:18.343Z,8.90
2019-05-28T08:29:46.811Z,9.43
2019-05-28T08:32:16.734Z,8.90
2019-05-28T08:34:45.139Z,9.50
2019-05-28T08:37:13.588Z,9.07
2019-05-28T08:39:42.067Z,8.40
2019-05-28T08:42:10.560Z,7.93
2019-05-28T08:44:38.975Z,7.47
2019-05-28T08:47:07.475Z,7.80
2019-05-28T08:49:36.055Z,8.68
2019-05-28T08:52:04.650Z,7.08
2019-05-28T08:54:33.046Z,7.33
2019-05-28T08:57:01.468Z,7.33
2019-05-28T08:59:30.311Z,6.50
2019-05-28T09:02:00.242Z,7.15
2019-05-28T09:04:29.902Z,6.33
2019-05-28T09:06:58.545Z,6.80
2019-05-28T09:09:27.100Z,6.83
2019-05-28T09:11:55.551Z,6.57
2019-05-28T09:14:24.243Z,6.90
2019-05-28T09:16:52.627Z,6.92
2019-05-28T09:19:21.049Z,6.40
2019-05-28T09:21:49.460Z,5.60
2019-05-28T09:24:18.169Z,5.20
2019-05-28T09:26:46.748Z,5.30
2019-05-28T09:29:15.150Z,4.87
2019-05-28T09:31:43.552Z,5.58
2019-05-28T09:34:12.225Z,5.00
2019-05-28T09:36:40.617Z,4.58
2019-05-28T09:39:09.719Z,4.25
2019-05-28T09:41:38.188Z,3.12
2019-05-28T09:44:06.638Z,3.33
2019-05-28T09:46:35.040Z,3.15
2019-05-28T09:49:04.627Z,3.40
2019-05-28T09:51:33.198Z,3.00
2019-05-28T09:54:01.631Z,3.35
2019-05-28T09:56:32.721Z,3.17
2019-05-28T09:59:00.339Z,2.98
2019-05-28T10:01:28.919Z,2.05
2019-05-28T10:03:57.344Z,2.98
2019-05-28T10:06:36.867Z,2.02
2019-05-28T10:08:55.875Z,1.65
2019-05-28T10:11:25.800Z,1.92
2019-05-28T10:13:54.191Z,1.65
2019-05-28T10:16:22.649Z,1.57
2019-05-28T10:18:51.308Z,1.55
2019-05-28T10:21:20.704Z,1.02
2019-05-28T10:23:49.101Z,1.00
2019-05-28T10:26:18.743Z,1.27
2019-05-28T10:28:50.442Z,0.80
2019-05-28T10:31:17.269Z,1.07
2019-05-28T10:33:45.748Z,0.80
2019-05-28T10:36:14.151Z,0.95
2019-05-28T10:38:42.540Z,0.80
2019-05-28T10:41:10.944Z,0.80
2019-05-28T10:43:39.335Z,0.73
2019-05-28T10:46:08.302Z,1.22
2019-05-28T10:48:37.036Z,0.80
2019-05-28T10:51:06.957Z,0.97
2019-05-28T10:53:35.354Z,0.78
2019-05-28T10:56:05.457Z,0.85
2019-05-28T10:58:33.862Z,0.98
2019-05-28T11:01:02.257Z,0.95
2019-05-28T11:03:30.645Z,1.50
2019-05-28T11:05:59.220Z,1.47
2019-05-28T11:08:29.111Z,0.95
2019-05-28T11:10:57.555Z,1.20
2019-05-28T11:13:27.547Z,1.10
2019-05-28T11:15:55.938Z,0.90
2019-05-28T11:18:24.333Z,1.30
2019-05-28T11:20:54.250Z,1.70
2019-05-28T11:23:22.808Z,1.07
2019-05-28T11:25:51.228Z,2.02
2019-05-28T11:28:21.134Z,1.30
2019-05-28T11:30:49.552Z,1.00
2019-05-28T11:33:18.012Z,2.15
2019-05-28T11:35:46.851Z,1.20
2019-05-28T11:38:15.215Z,1.37
2019-05-28T11:40:43.922Z,1.33
2019-05-28T11:43:12.452Z,0.88
2019-05-28T11:45:40.943Z,0.93
2019-05-28T11:48:09.451Z,1.08
2019-05-28T11:50:37.931Z,1.30
2019-05-28T11:53:06.516Z,2.33
2019-05-28T11:55:34.952Z,1.40
2019-05-28T11:58:03.672Z,1.98
2019-05-28T12:00:33.773Z,2.05
2019-05-28T12:03:03.679Z,8.68
2019-05-28T12:05:32.311Z,17.90
2019-05-28T12:08:00.922Z,17.92
2019-05-28T12:10:30.275Z,4.62
2019-05-28T12:12:59.070Z,2.00
2019-05-28T12:15:28.140Z,1.62
2019-05-28T12:17:59.070Z,1.20
2019-05-28T12:20:28.215Z,1.15
2019-05-28T12:23:10.542Z,1.42
2019-05-28T12:25:27.249Z,1.12
2019-05-28T12:27:55.686Z,1.70
2019-05-28T12:30:25.205Z,1.70
2019-05-28T12:32:53.711Z,1.40
2019-05-28T12:35:28.657Z,1.37
2019-05-28T12:37:53.006Z,1.62
2019-05-28T12:40:21.847Z,1.33
2019-05-28T12:42:53.225Z,1.20
2019-05-28T12:45:34.806Z,1.27
2019-05-28T12:48:09.430Z,0.75
2019-05-28T12:50:23.670Z,0.95
2019-05-28T12:52:53.632Z,1.10
2019-05-28T12:55:23.156Z,0.90
2019-05-28T12:57:51.781Z,0.73
2019-05-28T13:00:21.092Z,0.83
2019-05-28T13:02:51.342Z,0.80
2019-05-28T13:05:23.012Z,1.40
2019-05-28T13:08:07.459Z,0.90
2019-05-28T13:10:22.942Z,1.42
2019-05-28T13:12:51.689Z,1.27
2019-05-28T13:15:20.674Z,1.20
2019-05-28T13:17:49.142Z,0.90
2019-05-28T13:20:19.263Z,1.20
2019-05-28T13:22:47.896Z,1.20
2019-05-28T13:25:16.547Z,1.02
2019-05-28T13:27:44.990Z,1.05
2019-05-28T13:30:15.111Z,0.80
2019-05-28T13:32:44.747Z,0.80
2019-05-28T13:35:15.037Z,1.30
2019-05-28T13:37:43.530Z,1.15
2019-05-28T13:40:14.109Z,1.20
2019-05-28T13:42:42.535Z,0.90
2019-05-28T13:45:12.634Z,1.07
2019-05-28T13:47:41.360Z,1.52
2019-05-28T13:50:10.525Z,1.30
2019-05-28T13:52:38.922Z,1.17
2019-05-28T13:55:09.667Z,0.82
2019-05-28T13:57:39.612Z,0.85
2019-05-28T14:00:11.063Z,0.90
2019-05-28T14:02:39.975Z,0.88
2019-05-28T14:05:08.808Z,0.87
2019-05-28T14:07:40.243Z,0.90
2019-05-28T14:10:09.718Z,0.86
2019-05-28T14:12:38.326Z,1.30
2019-05-28T14:15:07.603Z,0.85
2019-05-28T14:17:35.951Z,0.90
2019-05-28T14:20:08.059Z,1.00
2019-05-28T14:22:37.318Z,0.95
2019-05-28T14:25:10.043Z,1.12
2019-05-28T14:27:38.520Z,0.90
2019-05-28T14:30:09.458Z,1.17
2019-05-28T14:32:37.996Z,0.90
2019-05-28T14:35:07.977Z,0.82
2019-05-28T14:37:36.443Z,0.90
2019-05-28T14:40:06.769Z,1.15
2019-05-28T14:42:35.243Z,0.85
2019-05-28T14:45:07.743Z,0.90
2019-05-28T14:47:36.256Z,0.70
2019-05-28T14:50:07.377Z,0.93
2019-05-28T14:52:36.032Z,0.78
2019-05-28T14:55:07.503Z,0.70
2019-05-28T14:57:35.872Z,0.80
2019-05-28T15:00:10.290Z,0.80
2019-05-28T15:02:38.848Z,1.15
2019-05-28T15:05:08.347Z,0.68
2019-05-28T15:07:36.890Z,0.70
2019-05-28T15:10:07.842Z,0.60
2019-05-28T15:12:36.327Z,0.50
2019-05-28T15:15:12.238Z,0.65
2019-05-28T15:17:40.635Z,0.53
2019-05-28T15:20:10.963Z,0.82
2019-05-28T15:22:39.522Z,0.55
2019-05-28T15:25:08.988Z,0.50
2019-05-28T15:27:37.560Z,0.50
2019-05-28T15:30:07.087Z,0.40
2019-05-28T15:32:36.725Z,0.60
2019-05-28T15:35:10.788Z,0.33
2019-05-28T15:37:39.253Z,0.50
2019-05-28T15:40:08.427Z,0.65
2019-05-28T15:42:36.863Z,0.50
2019-05-28T15:45:08.928Z,0.53
2019-05-28T15:47:38.493Z,0.72
2019-05-28T15:50:08.194Z,0.35
2019-05-28T15:52:36.897Z,0.60
2019-05-28T15:55:06.872Z,0.50
2019-05-28T15:57:36.943Z,0.60
2019-05-28T16:00:08.270Z,0.60
2019-05-28T16:02:36.978Z,0.75
2019-05-28T16:05:06.769Z,0.95
2019-05-28T16:07:36.796Z,0.50
2019-05-28T16:10:09.520Z,0.40
2019-05-28T16:12:39.438Z,0.37
2019-05-28T16:15:09.882Z,0.40
2019-05-28T16:17:41.153Z,0.53
2019-05-28T16:20:10.379Z,0.60
2019-05-28T16:22:39.009Z,0.60
2019-05-28T16:25:08.459Z,0.63
2019-05-28T16:27:36.896Z,0.50
2019-05-28T16:30:10.278Z,0.60
2019-05-28T16:32:38.686Z,0.40
2019-05-28T16:35:08.341Z,0.50
2019-05-28T16:37:37.239Z,0.40
2019-05-28T16:40:15.043Z,0.45
2019-05-28T16:42:40.128Z,0.50
2019-05-28T16:45:11.424Z,0.40
2019-05-28T16:47:39.811Z,0.35
2019-05-28T16:50:13.247Z,0.50
2019-05-28T16:52:39.676Z,0.40
2019-05-28T16:55:08.702Z,0.40
2019-05-28T16:57:37.096Z,0.40
2019-05-28T17:00:08.763Z,0.40
2019-05-28T17:02:37.221Z,0.40
2019-05-28T17:05:08.006Z,0.62
2019-05-28T17:07:36.531Z,0.30
2019-05-28T17:10:06.284Z,0.23
2019-05-28T17:12:34.800Z,0.30
2019-05-28T17:15:08.591Z,0.37
2019-05-28T17:17:36.974Z,0.47
2019-05-28T17:20:11.540Z,0.35
2019-05-28T17:22:39.967Z,0.40
2019-05-28T17:25:11.779Z,0.20
2019-05-28T17:27:40.052Z,0.45
2019-05-28T17:30:17.953Z,0.40
2019-05-28T17:32:39.680Z,0.45
2019-05-28T17:35:09.067Z,0.20
2019-05-28T17:37:37.461Z,1.45
2019-05-28T17:40:06.922Z,0.50
2019-05-28T17:42:35.840Z,0.40
2019-05-28T17:45:06.939Z,0.30
2019-05-28T17:47:43.417Z,0.50
2019-05-28T17:50:08.423Z,1.90
2019-05-28T17:52:36.808Z,31.93
2019-05-28T17:55:06.564Z,9.08
2019-05-28T17:57:35.144Z,3.98
2019-05-28T18:00:08.270Z,0.80
2019-05-28T18:02:36.648Z,1.65
2019-05-28T18:05:07.081Z,6.08
2019-05-28T18:07:35.616Z,1.30
2019-05-28T18:12:43.194Z,0.42
2019-05-28T18:15:12.030Z,0.40
2019-05-28T18:17:40.462Z,0.40
2019-05-28T18:20:10.522Z,0.50
2019-05-28T18:22:39.117Z,0.60
2019-05-28T18:25:08.327Z,0.30
2019-05-28T18:27:36.944Z,0.20
2019-05-28T18:30:10.589Z,0.50
2019-05-28T18:32:38.989Z,0.60
2019-05-28T18:35:08.878Z,0.70
2019-05-28T18:37:37.751Z,0.40
2019-05-28T18:40:11.534Z,0.57
2019-05-28T18:42:40.089Z,0.28
2019-05-28T18:45:09.643Z,0.40
2019-05-28T18:47:39.210Z,0.35
2019-05-28T18:50:09.062Z,0.50
2019-05-28T18:52:37.848Z,0.37
2019-05-28T18:55:10.479Z,0.28
2019-05-28T18:57:39.571Z,0.20
2019-05-28T19:00:09.270Z,0.40
2019-05-28T19:02:37.875Z,0.42
2019-05-28T19:05:09.447Z,0.30
2019-05-28T19:07:37.939Z,0.75
2019-05-28T19:10:10.162Z,0.23
2019-05-28T19:12:38.569Z,0.45
2019-05-28T19:15:08.377Z,0.35
2019-05-28T19:17:36.789Z,0.40
2019-05-28T19:20:09.081Z,0.60
2019-05-28T19:22:37.582Z,0.60
2019-05-28T19:25:09.056Z,0.50
2019-05-28T19:27:37.561Z,0.40
2019-05-28T19:30:10.732Z,0.47
2019-05-28T19:32:39.270Z,0.53
2019-05-28T19:35:10.138Z,0.30
2019-05-28T19:37:40.405Z,0.30
2019-05-28T19:40:11.879Z,0.47
2019-05-28T19:42:41.845Z,0.42
2019-05-28T19:45:10.288Z,0.42
2019-05-28T19:47:38.701Z,0.60
2019-05-28T19:50:09.255Z,0.57
2019-05-28T19:52:38.019Z,0.57
2019-05-28T19:55:09.482Z,0.40
2019-05-28T19:57:37.893Z,0.42
2019-05-28T20:00:07.836Z,0.33
2019-05-28T20:02:37.877Z,0.50
2019-05-28T20:05:07.910Z,0.45
2019-05-28T20:07:36.322Z,0.40
2019-05-28T20:10:06.635Z,0.50
2019-05-28T20:12:35.265Z,0.42
2019-05-28T20:15:09.577Z,0.80
2019-05-28T20:17:39.736Z,0.60
2019-05-28T20:20:09.509Z,0.55
2019-05-28T20:22:38.082Z,0.70
2019-05-28T20:25:07.943Z,0.80
2019-05-28T20:27:36.679Z,0.62
2019-05-28T20:30:09.786Z,1.00
2019-05-28T20:32:38.249Z,0.90
2019-05-28T20:35:09.621Z,0.80
2019-05-28T20:37:38.607Z,0.93
2019-05-28T20:40:08.197Z,1.20
2019-05-28T20:42:37.075Z,1.27
2019-05-28T20:45:08.645Z,2.40
2019-05-28T20:47:37.294Z,1.50
2019-05-28T20:50:09.328Z,1.00
2019-05-28T20:52:39.474Z,1.47
2019-05-28T20:55:09.113Z,1.50
2019-05-28T20:57:37.536Z,1.23
2019-05-28T21:00:10.852Z,1.15
2019-05-28T21:02:39.257Z,0.80
2019-05-28T21:05:08.925Z,0.87
2019-05-28T21:07:38.366Z,0.90
2019-05-28T21:10:08.891Z,0.90
2019-05-28T21:12:44.516Z,0.75
2019-05-28T21:15:15.562Z,0.70
2019-05-28T21:17:41.823Z,1.05
2019-05-28T21:20:12.123Z,1.07
2019-05-28T21:22:40.552Z,1.13
2019-05-28T21:25:10.373Z,0.82
2019-05-28T21:27:38.877Z,1.00
2019-05-28T21:30:09.669Z,1.30
2019-05-28T21:32:39.293Z,0.98
2019-05-28T21:35:09.040Z,0.80
2019-05-28T21:37:38.991Z,1.62
2019-05-28T21:40:08.525Z,1.00
2019-05-28T21:42:36.897Z,1.50
2019-05-28T21:45:06.927Z,1.67
2019-05-28T21:47:35.498Z,1.87
2019-05-28T21:50:07.706Z,2.12
2019-05-28T21:52:36.120Z,2.45
2019-05-28T21:55:07.808Z,1.82
2019-05-28T21:57:36.227Z,2.42
2019-05-28T22:00:14.484Z,2.20
2019-05-28T22:02:42.899Z,2.50
2019-05-28T22:05:13.019Z,2.47
2019-05-28T22:07:41.483Z,2.10
2019-05-28T22:10:10.116Z,2.22
2019-05-28T22:12:39.714Z,1.90
2019-05-28T22:15:08.656Z,2.45
2019-05-28T22:17:38.586Z,3.08
2019-05-28T22:20:10.186Z,2.80
2019-05-28T22:22:40.114Z,2.65
2019-05-28T22:25:08.841Z,3.58
2019-05-28T22:27:37.247Z,4.20
2019-05-28T22:30:07.883Z,3.80
2019-05-28T22:32:36.307Z,4.03
2019-05-28T22:35:10.015Z,3.12
2019-05-28T22:37:38.431Z,3.30
2019-05-28T22:40:09.346Z,3.70
2019-05-28T22:42:37.721Z,3.30
2019-05-28T22:45:08.174Z,3.33
2019-05-28T22:47:36.569Z,2.90
2019-05-28T22:50:22.197Z,2.72
2019-05-28T22:52:39.717Z,3.12
2019-05-28T22:55:08.762Z,3.12
2019-05-28T22:57:37.213Z,3.02
2019-05-28T23:00:08.799Z,3.27
2019-05-28T23:02:37.697Z,2.62
2019-05-28T23:05:07.296Z,3.35
2019-05-28T23:07:35.864Z,2.55
2019-05-28T23:10:07.892Z,3.17
2019-05-28T23:12:36.720Z,2.90
2019-05-28T23:15:08.496Z,3.30
2019-05-28T23:17:36.922Z,3.15
2019-05-28T23:20:11.247Z,3.77
2019-05-28T23:22:40.036Z,3.98
2019-05-28T23:25:09.630Z,3.62
2019-05-28T23:27:38.359Z,3.87
2019-05-28T23:30:21.267Z,3.65
2019-05-28T23:32:38.554Z,3.50
2019-05-28T23:35:08.726Z,3.87
2019-05-28T23:37:38.814Z,3.05
2019-05-28T23:40:09.586Z,3.20
2019-05-28T23:42:37.977Z,3.25
2019-05-28T23:45:07.784Z,3.47
2019-05-28T23:47:36.473Z,4.00
2019-05-28T23:50:08.515Z,3.22
2019-05-28T23:52:37.690Z,2.90
2019-05-28T23:55:07.710Z,3.55
2019-05-28T23:57:36.458Z,3.43
